Hauptseite
METAR-TAF:

METAR-TAF

Flughäfen :

Flughafen Aurillac

Aurillac, Frankreich

Breite: 44-53N, Länge: 002-25E, Höhe: 639 m

Beobachtung

Neuester Wetterbericht von vor 33 Minuten, um 06:30 UTC
Wind 3 kt aus Ost/Südost
Temperatur 18°C
Luftfeuchtigkeit 68%
Luftdruck 1019 hPa
Sichtweite 10 km oder mehr
keine Wolken unter 1500 m und keine Kumulonimbus oder Gewitterwolken

METAR: LFLW 180630Z AUTO 11003KT CAVOK 18/12 Q1019 NOSIG

Zeit: 09:03 (07:03 UTC)

Prognose

Neuester Wetterbericht von vor 2 Stunden und 3 Minuten, um 05:00 UTC
Gültige Prognose vom 18 um 06 UTC bis 18 um 15 UTC
Wind 3 kt aus unterschiedlichen Richtungen
Sichtweite 10 km oder mehr
keine Wolken unter 1500 m und keine Kumulonimbus oder Gewitterwolken

TAF: LFLW 180500Z 1806/1815 VRB03KT CAVOK

Wetterbeobachtungen und Prognosen von mehr als 4000 Flughäfen (METAR und TAF Bericht).

Die verfügbaren Stationen werden durch gelbe und rote Markierungen auf der Karte dargestellt.

Führen Sie die Maus auf sie, um den Namen der Station zu sehen.

Darauf klicken, um die Beobachtung von Wetterbeobachtungen und Prognosen zu sehen.

Um die Karte zu ändern : klicken Sie auf den grünen Tasten mit einem schwarzen Kreuz Zum Vergrößern, auf den grünen Button mit einem Gedankenstrich zu verkleinern, oder auf die grünen Pfeile für benachbarte Karten.


METAR-TAF: